sensor_id;sensor_type;location;lat;lon;timestamp;P1;durP1;ratioP1;P2;durP2;ratioP2
14125;SDS011;7141;49.484;11.242;2022-10-18T00:00:21;19.83;;;11.80;;
14125;SDS011;7141;49.484;11.242;2022-10-18T00:02:47;21.90;;;10.60;;
14125;SDS011;7141;49.484;11.242;2022-10-18T00:05:13;21.03;;;10.87;;
14125;SDS011;7141;49.484;11.242;2022-10-18T00:07:39;20.30;;;10.73;;
14125;SDS011;7141;49.484;11.242;2022-10-18T00:10:05;17.70;;;10.47;;
14125;SDS011;7141;49.484;11.242;2022-10-18T00:12:32;16.83;;;10.40;;
14125;SDS011;7141;49.484;11.242;2022-10-18T00:14:58;16.83;;;10.10;;
14125;SDS011;7141;49.484;11.242;2022-10-18T00:17:24;16.80;;;9.80;;
14125;SDS011;7141;49.484;11.242;2022-10-18T00:19:50;21.33;;;10.50;;
14125;SDS011;7141;49.484;11.242;2022-10-18T00:22:16;18.07;;;10.50;;
14125;SDS011;7141;49.484;11.242;2022-10-18T00:24:42;21.00;;;11.17;;
14125;SDS011;7141;49.484;11.242;2022-10-18T00:27:08;15.93;;;10.40;;
14125;SDS011;7141;49.484;11.242;2022-10-18T00:29:34;19.83;;;10.60;;
14125;SDS011;7141;49.484;11.242;2022-10-18T00:32:00;22.00;;;9.90;;
14125;SDS011;7141;49.484;11.242;2022-10-18T00:34:26;20.33;;;9.53;;
14125;SDS011;7141;49.484;11.242;2022-10-18T00:36:52;21.20;;;11.13;;
14125;SDS011;7141;49.484;11.242;2022-10-18T00:39:19;16.13;;;9.77;;
14125;SDS011;7141;49.484;11.242;2022-10-18T00:41:46;20.70;;;10.90;;
14125;SDS011;7141;49.484;11.242;2022-10-18T00:46:39;20.07;;;10.50;;
14125;SDS011;7141;49.484;11.242;2022-10-18T00:49:06;16.57;;;10.13;;
14125;SDS011;7141;49.484;11.242;2022-10-18T00:51:35;18.37;;;9.53;;
14125;SDS011;7141;49.484;11.242;2022-10-18T00:54:03;17.73;;;10.30;;
14125;SDS011;7141;49.484;11.242;2022-10-18T00:56:29;23.30;;;10.37;;
14125;SDS011;7141;49.484;11.242;2022-10-18T00:58:55;20.87;;;10.90;;
14125;SDS011;7141;49.484;11.242;2022-10-18T01:01:22;17.07;;;9.87;;
14125;SDS011;7141;49.484;11.242;2022-10-18T01:03:48;15.40;;;9.47;;
14125;SDS011;7141;49.484;11.242;2022-10-18T01:06:14;16.60;;;9.93;;
14125;SDS011;7141;49.484;11.242;2022-10-18T01:14:10;22.03;;;9.77;;
14125;SDS011;7141;49.484;11.242;2022-10-18T01:16:46;16.67;;;9.40;;
14125;SDS011;7141;49.484;11.242;2022-10-18T01:19:37;14.10;;;9.93;;
14125;SDS011;7141;49.484;11.242;2022-10-18T01:32:15;18.00;;;8.87;;
14125;SDS011;7141;49.484;11.242;2022-10-18T01:34:43;13.70;;;10.00;;
14125;SDS011;7141;49.484;11.242;2022-10-18T01:37:10;16.97;;;9.00;;
14125;SDS011;7141;49.484;11.242;2022-10-18T01:39:39;21.47;;;9.77;;
14125;SDS011;7141;49.484;11.242;2022-10-18T01:42:07;16.17;;;9.77;;
14125;SDS011;7141;49.484;11.242;2022-10-18T01:44:34;17.70;;;9.00;;
14125;SDS011;7141;49.484;11.242;2022-10-18T01:47:02;14.40;;;8.93;;
14125;SDS011;7141;49.484;11.242;2022-10-18T01:49:29;16.93;;;9.53;;
14125;SDS011;7141;49.484;11.242;2022-10-18T01:51:55;15.03;;;9.17;;
14125;SDS011;7141;49.484;11.242;2022-10-18T01:54:23;18.93;;;9.20;;
14125;SDS011;7141;49.484;11.242;2022-10-18T01:56:59;17.43;;;9.07;;
14125;SDS011;7141;49.484;11.242;2022-10-18T01:59:32;9.37;;;8.37;;
14125;SDS011;7141;49.484;11.242;2022-10-18T02:02:06;16.73;;;9.20;;
14125;SDS011;7141;49.484;11.242;2022-10-18T02:07:05;11.57;;;8.80;;
14125;SDS011;7141;49.484;11.242;2022-10-18T02:09:45;12.10;;;8.80;;
14125;SDS011;7141;49.484;11.242;2022-10-18T02:12:14;18.43;;;9.93;;
14125;SDS011;7141;49.484;11.242;2022-10-18T02:14:41;10.93;;;8.87;;
14125;SDS011;7141;49.484;11.242;2022-10-18T02:17:08;19.07;;;9.83;;
14125;SDS011;7141;49.484;11.242;2022-10-18T02:19:40;19.70;;;10.40;;
14125;SDS011;7141;49.484;11.242;2022-10-18T02:22:07;18.63;;;9.70;;
14125;SDS011;7141;49.484;11.242;2022-10-18T02:24:37;19.37;;;10.20;;
14125;SDS011;7141;49.484;11.242;2022-10-18T02:27:03;15.40;;;9.57;;
14125;SDS011;7141;49.484;11.242;2022-10-18T02:29:29;18.33;;;10.03;;
14125;SDS011;7141;49.484;11.242;2022-10-18T02:32:07;16.37;;;10.53;;
14125;SDS011;7141;49.484;11.242;2022-10-18T02:34:40;13.17;;;9.47;;
14125;SDS011;7141;49.484;11.242;2022-10-18T02:37:07;18.53;;;9.90;;
14125;SDS011;7141;49.484;11.242;2022-10-18T02:39:38;13.10;;;9.40;;
14125;SDS011;7141;49.484;11.242;2022-10-18T02:42:08;13.97;;;10.13;;
14125;SDS011;7141;49.484;11.242;2022-10-18T02:44:34;16.30;;;10.70;;
14125;SDS011;7141;49.484;11.242;2022-10-18T02:47:00;15.30;;;10.03;;
14125;SDS011;7141;49.484;11.242;2022-10-18T02:49:27;16.43;;;9.63;;
14125;SDS011;7141;49.484;11.242;2022-10-18T02:51:53;18.93;;;9.83;;
14125;SDS011;7141;49.484;11.242;2022-10-18T02:54:19;12.43;;;9.77;;
14125;SDS011;7141;49.484;11.242;2022-10-18T02:56:45;15.00;;;10.10;;
14125;SDS011;7141;49.484;11.242;2022-10-18T02:59:11;18.97;;;10.33;;
14125;SDS011;7141;49.484;11.242;2022-10-18T03:01:37;18.53;;;10.40;;
14125;SDS011;7141;49.484;11.242;2022-10-18T03:04:03;18.13;;;9.60;;
14125;SDS011;7141;49.484;11.242;2022-10-18T03:06:29;10.67;;;8.47;;
14125;SDS011;7141;49.484;11.242;2022-10-18T03:08:55;17.30;;;9.03;;
14125;SDS011;7141;49.484;11.242;2022-10-18T03:11:21;23.27;;;9.33;;
14125;SDS011;7141;49.484;11.242;2022-10-18T03:13:47;19.40;;;8.53;;
14125;SDS011;7141;49.484;11.242;2022-10-18T03:16:15;15.83;;;9.83;;
14125;SDS011;7141;49.484;11.242;2022-10-18T03:18:41;14.80;;;9.40;;
14125;SDS011;7141;49.484;11.242;2022-10-18T03:21:07;16.17;;;9.87;;
14125;SDS011;7141;49.484;11.242;2022-10-18T03:23:33;11.30;;;8.60;;
14125;SDS011;7141;49.484;11.242;2022-10-18T03:25:59;11.13;;;8.50;;
14125;SDS011;7141;49.484;11.242;2022-10-18T03:28:25;12.23;;;8.43;;
14125;SDS011;7141;49.484;11.242;2022-10-18T03:30:51;13.50;;;8.97;;
14125;SDS011;7141;49.484;11.242;2022-10-18T03:33:17;22.77;;;8.30;;
14125;SDS011;7141;49.484;11.242;2022-10-18T03:35:44;17.13;;;8.30;;
14125;SDS011;7141;49.484;11.242;2022-10-18T03:38:09;14.03;;;7.70;;
14125;SDS011;7141;49.484;11.242;2022-10-18T03:40:35;16.93;;;8.23;;
14125;SDS011;7141;49.484;11.242;2022-10-18T03:43:02;10.13;;;7.43;;
14125;SDS011;7141;49.484;11.242;2022-10-18T03:45:28;16.80;;;8.67;;
14125;SDS011;7141;49.484;11.242;2022-10-18T03:47:54;14.57;;;7.27;;
14125;SDS011;7141;49.484;11.242;2022-10-18T03:50:20;14.03;;;8.40;;
14125;SDS011;7141;49.484;11.242;2022-10-18T03:52:45;12.50;;;7.90;;
14125;SDS011;7141;49.484;11.242;2022-10-18T03:55:11;12.20;;;7.33;;
14125;SDS011;7141;49.484;11.242;2022-10-18T03:57:37;11.93;;;8.73;;
14125;SDS011;7141;49.484;11.242;2022-10-18T04:00:04;12.60;;;7.70;;
14125;SDS011;7141;49.484;11.242;2022-10-18T04:02:30;12.87;;;7.83;;
14125;SDS011;7141;49.484;11.242;2022-10-18T04:04:56;11.20;;;8.20;;
14125;SDS011;7141;49.484;11.242;2022-10-18T04:07:22;15.53;;;8.93;;
14125;SDS011;7141;49.484;11.242;2022-10-18T04:09:48;10.63;;;7.80;;
14125;SDS011;7141;49.484;11.242;2022-10-18T04:12:14;13.70;;;8.23;;
14125;SDS011;7141;49.484;11.242;2022-10-18T04:14:40;15.73;;;9.27;;
14125;SDS011;7141;49.484;11.242;2022-10-18T04:17:06;12.17;;;8.67;;
14125;SDS011;7141;49.484;11.242;2022-10-18T04:19:32;11.33;;;8.40;;
14125;SDS011;7141;49.484;11.242;2022-10-18T04:21:58;17.50;;;8.13;;
14125;SDS011;7141;49.484;11.242;2022-10-18T04:24:24;13.67;;;8.60;;
14125;SDS011;7141;49.484;11.242;2022-10-18T04:26:50;12.57;;;8.40;;
14125;SDS011;7141;49.484;11.242;2022-10-18T04:29:16;12.87;;;8.57;;
14125;SDS011;7141;49.484;11.242;2022-10-18T04:31:42;17.73;;;8.87;;
14125;SDS011;7141;49.484;11.242;2022-10-18T04:34:09;15.80;;;9.13;;
14125;SDS011;7141;49.484;11.242;2022-10-18T04:36:35;11.87;;;8.37;;
14125;SDS011;7141;49.484;11.242;2022-10-18T04:39:01;13.80;;;9.10;;
14125;SDS011;7141;49.484;11.242;2022-10-18T04:41:27;15.47;;;8.90;;
14125;SDS011;7141;49.484;11.242;2022-10-18T04:43:53;17.03;;;8.43;;
14125;SDS011;7141;49.484;11.242;2022-10-18T04:46:19;18.20;;;8.97;;
14125;SDS011;7141;49.484;11.242;2022-10-18T04:48:45;16.47;;;8.70;;
14125;SDS011;7141;49.484;11.242;2022-10-18T04:51:11;19.80;;;9.30;;
14125;SDS011;7141;49.484;11.242;2022-10-18T04:53:36;14.60;;;9.47;;
14125;SDS011;7141;49.484;11.242;2022-10-18T04:56:02;14.83;;;9.00;;
14125;SDS011;7141;49.484;11.242;2022-10-18T04:58:28;13.67;;;9.87;;
14125;SDS011;7141;49.484;11.242;2022-10-18T05:00:54;13.07;;;9.97;;
14125;SDS011;7141;49.484;11.242;2022-10-18T05:03:20;17.10;;;10.03;;
14125;SDS011;7141;49.484;11.242;2022-10-18T05:05:46;16.23;;;11.30;;
14125;SDS011;7141;49.484;11.242;2022-10-18T05:08:12;20.03;;;10.63;;
14125;SDS011;7141;49.484;11.242;2022-10-18T05:10:38;17.47;;;9.47;;
14125;SDS011;7141;49.484;11.242;2022-10-18T05:13:04;18.53;;;8.80;;
14125;SDS011;7141;49.484;11.242;2022-10-18T05:15:30;16.80;;;9.23;;
14125;SDS011;7141;49.484;11.242;2022-10-18T05:17:56;15.50;;;8.73;;
14125;SDS011;7141;49.484;11.242;2022-10-18T05:20:22;12.30;;;8.43;;
14125;SDS011;7141;49.484;11.242;2022-10-18T05:22:48;14.40;;;7.70;;
14125;SDS011;7141;49.484;11.242;2022-10-18T05:25:14;10.60;;;7.77;;
14125;SDS011;7141;49.484;11.242;2022-10-18T05:27:40;11.40;;;8.03;;
14125;SDS011;7141;49.484;11.242;2022-10-18T05:30:06;12.40;;;7.40;;
14125;SDS011;7141;49.484;11.242;2022-10-18T05:32:32;13.30;;;8.10;;
14125;SDS011;7141;49.484;11.242;2022-10-18T05:34:58;12.37;;;8.00;;
14125;SDS011;7141;49.484;11.242;2022-10-18T05:37:24;12.63;;;8.07;;
14125;SDS011;7141;49.484;11.242;2022-10-18T05:39:50;11.47;;;7.80;;
14125;SDS011;7141;49.484;11.242;2022-10-18T05:42:16;13.67;;;7.87;;
14125;SDS011;7141;49.484;11.242;2022-10-18T05:44:42;15.40;;;7.30;;
14125;SDS011;7141;49.484;11.242;2022-10-18T05:47:08;13.20;;;8.00;;
14125;SDS011;7141;49.484;11.242;2022-10-18T05:49:34;10.27;;;7.67;;
14125;SDS011;7141;49.484;11.242;2022-10-18T05:52:00;14.83;;;8.57;;
14125;SDS011;7141;49.484;11.242;2022-10-18T05:54:26;10.67;;;7.60;;
14125;SDS011;7141;49.484;11.242;2022-10-18T05:56:52;11.30;;;8.33;;
14125;SDS011;7141;49.484;11.242;2022-10-18T05:59:18;14.10;;;9.20;;
14125;SDS011;7141;49.484;11.242;2022-10-18T06:01:44;14.30;;;9.27;;
14125;SDS011;7141;49.484;11.242;2022-10-18T06:04:10;13.70;;;8.17;;
14125;SDS011;7141;49.484;11.242;2022-10-18T06:06:37;11.57;;;8.80;;
14125;SDS011;7141;49.484;11.242;2022-10-18T06:09:03;14.90;;;8.77;;
14125;SDS011;7141;49.484;11.242;2022-10-18T06:11:30;18.27;;;8.87;;
14125;SDS011;7141;49.484;11.242;2022-10-18T06:13:56;13.53;;;8.87;;
14125;SDS011;7141;49.484;11.242;2022-10-18T06:16:22;11.60;;;9.13;;
14125;SDS011;7141;49.484;11.242;2022-10-18T06:18:52;11.60;;;9.40;;
14125;SDS011;7141;49.484;11.242;2022-10-18T06:21:18;15.37;;;8.57;;
14125;SDS011;7141;49.484;11.242;2022-10-18T06:23:48;11.17;;;8.43;;
14125;SDS011;7141;49.484;11.242;2022-10-18T06:26:14;13.90;;;8.70;;
14125;SDS011;7141;49.484;11.242;2022-10-18T06:28:40;12.20;;;8.77;;
14125;SDS011;7141;49.484;11.242;2022-10-18T06:31:06;14.47;;;8.63;;
14125;SDS011;7141;49.484;11.242;2022-10-18T06:33:33;13.43;;;8.80;;
14125;SDS011;7141;49.484;11.242;2022-10-18T06:36:00;8.80;;;7.63;;
14125;SDS011;7141;49.484;11.242;2022-10-18T06:38:27;14.57;;;8.83;;
14125;SDS011;7141;49.484;11.242;2022-10-18T06:40:54;14.77;;;8.40;;
14125;SDS011;7141;49.484;11.242;2022-10-18T06:43:20;14.97;;;8.00;;
14125;SDS011;7141;49.484;11.242;2022-10-18T06:45:46;18.60;;;8.17;;
14125;SDS011;7141;49.484;11.242;2022-10-18T06:48:12;14.03;;;8.17;;
14125;SDS011;7141;49.484;11.242;2022-10-18T06:50:38;16.97;;;7.43;;
14125;SDS011;7141;49.484;11.242;2022-10-18T06:53:04;16.17;;;8.17;;
14125;SDS011;7141;49.484;11.242;2022-10-18T06:55:32;16.40;;;8.37;;
14125;SDS011;7141;49.484;11.242;2022-10-18T06:57:59;13.83;;;8.33;;
14125;SDS011;7141;49.484;11.242;2022-10-18T07:00:25;9.40;;;8.23;;
14125;SDS011;7141;49.484;11.242;2022-10-18T07:02:51;12.67;;;9.40;;
14125;SDS011;7141;49.484;11.242;2022-10-18T07:05:17;16.83;;;9.47;;
14125;SDS011;7141;49.484;11.242;2022-10-18T07:07:43;16.50;;;6.93;;
14125;SDS011;7141;49.484;11.242;2022-10-18T07:10:09;14.93;;;7.43;;
14125;SDS011;7141;49.484;11.242;2022-10-18T07:12:35;11.97;;;7.50;;
14125;SDS011;7141;49.484;11.242;2022-10-18T07:15:01;13.97;;;7.40;;
14125;SDS011;7141;49.484;11.242;2022-10-18T07:17:27;9.17;;;7.30;;
14125;SDS011;7141;49.484;11.242;2022-10-18T07:19:53;12.77;;;7.50;;
14125;SDS011;7141;49.484;11.242;2022-10-18T07:22:19;13.43;;;6.73;;
14125;SDS011;7141;49.484;11.242;2022-10-18T07:24:45;9.40;;;6.43;;
14125;SDS011;7141;49.484;11.242;2022-10-18T07:27:11;12.43;;;6.87;;
14125;SDS011;7141;49.484;11.242;2022-10-18T07:29:37;13.07;;;7.97;;
14125;SDS011;7141;49.484;11.242;2022-10-18T07:32:04;12.23;;;7.47;;
14125;SDS011;7141;49.484;11.242;2022-10-18T07:34:30;10.43;;;7.33;;
14125;SDS011;7141;49.484;11.242;2022-10-18T07:36:56;7.80;;;6.87;;
14125;SDS011;7141;49.484;11.242;2022-10-18T07:39:22;13.40;;;8.03;;
14125;SDS011;7141;49.484;11.242;2022-10-18T07:41:48;16.13;;;7.30;;
14125;SDS011;7141;49.484;11.242;2022-10-18T07:44:14;14.47;;;8.00;;
14125;SDS011;7141;49.484;11.242;2022-10-18T07:46:40;13.77;;;8.03;;
14125;SDS011;7141;49.484;11.242;2022-10-18T07:49:06;12.50;;;7.83;;
14125;SDS011;7141;49.484;11.242;2022-10-18T07:51:32;13.77;;;7.23;;
14125;SDS011;7141;49.484;11.242;2022-10-18T07:53:59;14.47;;;7.27;;
14125;SDS011;7141;49.484;11.242;2022-10-18T07:56:25;17.33;;;8.00;;
14125;SDS011;7141;49.484;11.242;2022-10-18T07:58:52;14.00;;;7.67;;
14125;SDS011;7141;49.484;11.242;2022-10-18T08:01:19;12.43;;;8.03;;
14125;SDS011;7141;49.484;11.242;2022-10-18T08:03:45;15.23;;;8.23;;
14125;SDS011;7141;49.484;11.242;2022-10-18T08:06:12;16.33;;;8.53;;
14125;SDS011;7141;49.484;11.242;2022-10-18T08:08:39;14.13;;;7.57;;
14125;SDS011;7141;49.484;11.242;2022-10-18T08:11:07;15.00;;;8.60;;
14125;SDS011;7141;49.484;11.242;2022-10-18T08:13:33;13.33;;;7.87;;
14125;SDS011;7141;49.484;11.242;2022-10-18T08:16:00;17.10;;;7.97;;
14125;SDS011;7141;49.484;11.242;2022-10-18T08:18:26;11.87;;;8.83;;
14125;SDS011;7141;49.484;11.242;2022-10-18T08:20:52;14.37;;;8.40;;
14125;SDS011;7141;49.484;11.242;2022-10-18T08:23:18;12.73;;;8.00;;
14125;SDS011;7141;49.484;11.242;2022-10-18T08:25:43;19.17;;;7.93;;
14125;SDS011;7141;49.484;11.242;2022-10-18T08:28:09;17.17;;;7.30;;
14125;SDS011;7141;49.484;11.242;2022-10-18T08:30:37;20.90;;;7.83;;
14125;SDS011;7141;49.484;11.242;2022-10-18T08:33:04;16.63;;;8.10;;
14125;SDS011;7141;49.484;11.242;2022-10-18T08:35:30;17.67;;;7.60;;
14125;SDS011;7141;49.484;11.242;2022-10-18T08:37:56;13.60;;;7.47;;
14125;SDS011;7141;49.484;11.242;2022-10-18T08:40:23;15.33;;;7.70;;
14125;SDS011;7141;49.484;11.242;2022-10-18T08:45:37;12.60;;;7.70;;
14125;SDS011;7141;49.484;11.242;2022-10-18T08:48:05;13.23;;;7.97;;
14125;SDS011;7141;49.484;11.242;2022-10-18T08:50:33;10.50;;;7.63;;
14125;SDS011;7141;49.484;11.242;2022-10-18T08:55:32;13.13;;;7.30;;
14125;SDS011;7141;49.484;11.242;2022-10-18T08:58:01;14.53;;;7.50;;
14125;SDS011;7141;49.484;11.242;2022-10-18T09:00:29;11.53;;;7.47;;
14125;SDS011;7141;49.484;11.242;2022-10-18T09:13:31;12.67;;;7.50;;
14125;SDS011;7141;49.484;11.242;2022-10-18T09:16:00;14.03;;;7.33;;
14125;SDS011;7141;49.484;11.242;2022-10-18T09:18:31;10.60;;;6.23;;
14125;SDS011;7141;49.484;11.242;2022-10-18T09:21:00;12.60;;;6.03;;
14125;SDS011;7141;49.484;11.242;2022-10-18T09:26:01;14.20;;;5.77;;
14125;SDS011;7141;49.484;11.242;2022-10-18T09:28:35;7.90;;;5.40;;
14125;SDS011;7141;49.484;11.242;2022-10-18T09:31:14;12.80;;;5.67;;
14125;SDS011;7141;49.484;11.242;2022-10-18T09:33:52;6.07;;;5.13;;
14125;SDS011;7141;49.484;11.242;2022-10-18T09:36:20;11.63;;;5.00;;
14125;SDS011;7141;49.484;11.242;2022-10-18T09:38:48;12.57;;;5.30;;
14125;SDS011;7141;49.484;11.242;2022-10-18T09:41:17;12.03;;;5.43;;
14125;SDS011;7141;49.484;11.242;2022-10-18T09:43:54;11.10;;;5.03;;
14125;SDS011;7141;49.484;11.242;2022-10-18T09:46:24;15.23;;;5.63;;
14125;SDS011;7141;49.484;11.242;2022-10-18T09:49:04;9.40;;;4.50;;
14125;SDS011;7141;49.484;11.242;2022-10-18T09:51:35;9.23;;;5.20;;
14125;SDS011;7141;49.484;11.242;2022-10-18T09:56:34;11.37;;;5.03;;
14125;SDS011;7141;49.484;11.242;2022-10-18T09:59:01;11.30;;;5.17;;
14125;SDS011;7141;49.484;11.242;2022-10-18T10:01:28;13.07;;;4.90;;
14125;SDS011;7141;49.484;11.242;2022-10-18T10:03:54;9.20;;;5.03;;
14125;SDS011;7141;49.484;11.242;2022-10-18T10:06:24;10.43;;;4.93;;
14125;SDS011;7141;49.484;11.242;2022-10-18T10:08:56;8.30;;;4.40;;
14125;SDS011;7141;49.484;11.242;2022-10-18T10:11:41;11.03;;;4.23;;
14125;SDS011;7141;49.484;11.242;2022-10-18T10:14:13;7.33;;;3.90;;
14125;SDS011;7141;49.484;11.242;2022-10-18T10:17:40;10.23;;;3.80;;
14125;SDS011;7141;49.484;11.242;2022-10-18T10:22:25;13.63;;;4.37;;
14125;SDS011;7141;49.484;11.242;2022-10-18T10:24:52;9.73;;;4.07;;
14125;SDS011;7141;49.484;11.242;2022-10-18T10:30:26;13.10;;;3.87;;
14125;SDS011;7141;49.484;11.242;2022-10-18T10:32:53;5.90;;;3.57;;
14125;SDS011;7141;49.484;11.242;2022-10-18T10:35:23;8.90;;;3.73;;
14125;SDS011;7141;49.484;11.242;2022-10-18T10:37:50;8.83;;;3.60;;
14125;SDS011;7141;49.484;11.242;2022-10-18T10:40:18;6.50;;;4.07;;
14125;SDS011;7141;49.484;11.242;2022-10-18T10:45:31;12.43;;;4.20;;
14125;SDS011;7141;49.484;11.242;2022-10-18T10:48:02;11.00;;;4.47;;
14125;SDS011;7141;49.484;11.242;2022-10-18T10:50:29;6.57;;;3.70;;
14125;SDS011;7141;49.484;11.242;2022-10-18T10:52:55;7.60;;;3.90;;
14125;SDS011;7141;49.484;11.242;2022-10-18T10:55:22;8.33;;;4.23;;
14125;SDS011;7141;49.484;11.242;2022-10-18T10:57:49;7.73;;;4.10;;
14125;SDS011;7141;49.484;11.242;2022-10-18T11:03:05;10.87;;;3.90;;
14125;SDS011;7141;49.484;11.242;2022-10-18T11:05:31;9.47;;;4.33;;
14125;SDS011;7141;49.484;11.242;2022-10-18T11:08:07;8.53;;;4.50;;
14125;SDS011;7141;49.484;11.242;2022-10-18T11:10:44;12.57;;;4.27;;
14125;SDS011;7141;49.484;11.242;2022-10-18T11:15:59;7.90;;;3.70;;
14125;SDS011;7141;49.484;11.242;2022-10-18T11:18:31;8.00;;;3.73;;
14125;SDS011;7141;49.484;11.242;2022-10-18T11:23:29;5.57;;;4.10;;
14125;SDS011;7141;49.484;11.242;2022-10-18T11:39:18;11.33;;;5.40;;
14125;SDS011;7141;49.484;11.242;2022-10-18T11:41:52;13.83;;;5.83;;
14125;SDS011;7141;49.484;11.242;2022-10-18T11:49:31;10.33;;;5.83;;
14125;SDS011;7141;49.484;11.242;2022-10-18T11:59:44;14.27;;;6.30;;
14125;SDS011;7141;49.484;11.242;2022-10-18T12:04:59;12.97;;;6.87;;
14125;SDS011;7141;49.484;11.242;2022-10-18T12:07:29;10.33;;;5.80;;
14125;SDS011;7141;49.484;11.242;2022-10-18T12:09:55;11.77;;;6.37;;
14125;SDS011;7141;49.484;11.242;2022-10-18T12:12:29;10.70;;;6.40;;
14125;SDS011;7141;49.484;11.242;2022-10-18T12:15:00;10.97;;;6.17;;
14125;SDS011;7141;49.484;11.242;2022-10-18T12:17:30;10.80;;;6.03;;
14125;SDS011;7141;49.484;11.242;2022-10-18T12:20:02;12.90;;;6.03;;
14125;SDS011;7141;49.484;11.242;2022-10-18T12:23:11;9.67;;;5.67;;
14125;SDS011;7141;49.484;11.242;2022-10-18T12:25:18;15.90;;;5.70;;
14125;SDS011;7141;49.484;11.242;2022-10-18T12:32:48;8.60;;;6.50;;
14125;SDS011;7141;49.484;11.242;2022-10-18T12:35:15;12.27;;;6.97;;
14125;SDS011;7141;49.484;11.242;2022-10-18T12:37:54;10.80;;;6.30;;
14125;SDS011;7141;49.484;11.242;2022-10-18T12:40:34;9.80;;;5.53;;
14125;SDS011;7141;49.484;11.242;2022-10-18T12:43:02;12.37;;;6.30;;
14125;SDS011;7141;49.484;11.242;2022-10-18T12:45:32;12.47;;;5.80;;
14125;SDS011;7141;49.484;11.242;2022-10-18T12:48:04;10.40;;;6.67;;
14125;SDS011;7141;49.484;11.242;2022-10-18T12:50:40;10.67;;;6.13;;
14125;SDS011;7141;49.484;11.242;2022-10-18T12:53:17;12.03;;;5.80;;
14125;SDS011;7141;49.484;11.242;2022-10-18T12:55:45;9.83;;;5.93;;
14125;SDS011;7141;49.484;11.242;2022-10-18T13:05:52;12.57;;;6.07;;
14125;SDS011;7141;49.484;11.242;2022-10-18T13:18:58;13.03;;;6.47;;
14125;SDS011;7141;49.484;11.242;2022-10-18T13:21:38;12.27;;;5.97;;
14125;SDS011;7141;49.484;11.242;2022-10-18T13:31:29;9.73;;;5.27;;
14125;SDS011;7141;49.484;11.242;2022-10-18T13:39:25;8.83;;;6.00;;
14125;SDS011;7141;49.484;11.242;2022-10-18T13:51:51;11.00;;;5.83;;
14125;SDS011;7141;49.484;11.242;2022-10-18T14:07:22;12.13;;;6.57;;
14125;SDS011;7141;49.484;11.242;2022-10-18T14:09:51;12.63;;;6.23;;
14125;SDS011;7141;49.484;11.242;2022-10-18T14:15:11;11.00;;;6.37;;
14125;SDS011;7141;49.484;11.242;2022-10-18T14:17:43;11.73;;;6.10;;
14125;SDS011;7141;49.484;11.242;2022-10-18T14:25:18;13.77;;;6.37;;
14125;SDS011;7141;49.484;11.242;2022-10-18T14:27:44;10.40;;;6.23;;
14125;SDS011;7141;49.484;11.242;2022-10-18T14:32:40;11.33;;;5.77;;
14125;SDS011;7141;49.484;11.242;2022-10-18T14:35:15;12.70;;;6.70;;
14125;SDS011;7141;49.484;11.242;2022-10-18T14:37:41;14.60;;;7.53;;
14125;SDS011;7141;49.484;11.242;2022-10-18T14:43:13;7.50;;;5.97;;
14125;SDS011;7141;49.484;11.242;2022-10-18T14:45:40;12.20;;;7.20;;
14125;SDS011;7141;49.484;11.242;2022-10-18T14:48:19;12.03;;;6.70;;
14125;SDS011;7141;49.484;11.242;2022-10-18T14:50:46;13.50;;;6.57;;
14125;SDS011;7141;49.484;11.242;2022-10-18T14:53:18;12.67;;;6.80;;
14125;SDS011;7141;49.484;11.242;2022-10-18T14:55:53;13.40;;;6.63;;
14125;SDS011;7141;49.484;11.242;2022-10-18T14:58:19;10.83;;;6.10;;
14125;SDS011;7141;49.484;11.242;2022-10-18T15:00:45;9.13;;;6.93;;
14125;SDS011;7141;49.484;11.242;2022-10-18T15:03:12;9.00;;;7.03;;
14125;SDS011;7141;49.484;11.242;2022-10-18T15:05:50;12.77;;;7.00;;
14125;SDS011;7141;49.484;11.242;2022-10-18T15:08:16;14.53;;;6.83;;
14125;SDS011;7141;49.484;11.242;2022-10-18T15:10:42;10.60;;;6.73;;
14125;SDS011;7141;49.484;11.242;2022-10-18T15:13:09;11.63;;;7.20;;
14125;SDS011;7141;49.484;11.242;2022-10-18T15:15:36;15.60;;;7.77;;
14125;SDS011;7141;49.484;11.242;2022-10-18T15:18:02;11.03;;;7.23;;
14125;SDS011;7141;49.484;11.242;2022-10-18T15:20:30;12.00;;;7.70;;
14125;SDS011;7141;49.484;11.242;2022-10-18T15:25:40;11.10;;;7.73;;
14125;SDS011;7141;49.484;11.242;2022-10-18T15:28:15;11.90;;;7.43;;
14125;SDS011;7141;49.484;11.242;2022-10-18T15:30:42;13.67;;;7.93;;
14125;SDS011;7141;49.484;11.242;2022-10-18T15:33:16;16.80;;;7.50;;
14125;SDS011;7141;49.484;11.242;2022-10-18T15:35:44;15.53;;;7.10;;
14125;SDS011;7141;49.484;11.242;2022-10-18T15:38:14;12.50;;;7.37;;
14125;SDS011;7141;49.484;11.242;2022-10-18T15:40:41;11.57;;;7.10;;
14125;SDS011;7141;49.484;11.242;2022-10-18T15:45:58;9.53;;;7.57;;
14125;SDS011;7141;49.484;11.242;2022-10-18T15:51:00;16.83;;;8.80;;
14125;SDS011;7141;49.484;11.242;2022-10-18T15:56:04;11.77;;;8.30;;
14125;SDS011;7141;49.484;11.242;2022-10-18T16:01:03;10.20;;;7.73;;
14125;SDS011;7141;49.484;11.242;2022-10-18T16:03:33;12.63;;;6.87;;
14125;SDS011;7141;49.484;11.242;2022-10-18T16:06:04;11.57;;;7.43;;
14125;SDS011;7141;49.484;11.242;2022-10-18T16:08:30;11.60;;;7.30;;
14125;SDS011;7141;49.484;11.242;2022-10-18T16:11:01;13.50;;;7.30;;
14125;SDS011;7141;49.484;11.242;2022-10-18T16:13:27;12.60;;;6.90;;
14125;SDS011;7141;49.484;11.242;2022-10-18T16:15:53;13.73;;;7.30;;
14125;SDS011;7141;49.484;11.242;2022-10-18T16:18:23;13.37;;;7.40;;
14125;SDS011;7141;49.484;11.242;2022-10-18T16:20:49;15.67;;;7.17;;
14125;SDS011;7141;49.484;11.242;2022-10-18T16:23:17;8.13;;;7.00;;
14125;SDS011;7141;49.484;11.242;2022-10-18T16:25:43;8.83;;;7.27;;
14125;SDS011;7141;49.484;11.242;2022-10-18T16:28:20;15.77;;;8.07;;
14125;SDS011;7141;49.484;11.242;2022-10-18T16:30:51;8.97;;;7.90;;
14125;SDS011;7141;49.484;11.242;2022-10-18T16:33:18;13.47;;;7.70;;
14125;SDS011;7141;49.484;11.242;2022-10-18T16:35:44;11.07;;;7.60;;
14125;SDS011;7141;49.484;11.242;2022-10-18T16:38:17;13.67;;;8.90;;
14125;SDS011;7141;49.484;11.242;2022-10-18T16:40:44;11.00;;;7.80;;
14125;SDS011;7141;49.484;11.242;2022-10-18T16:43:10;12.53;;;8.17;;
14125;SDS011;7141;49.484;11.242;2022-10-18T16:45:36;8.37;;;7.17;;
14125;SDS011;7141;49.484;11.242;2022-10-18T16:48:02;9.53;;;7.37;;
14125;SDS011;7141;49.484;11.242;2022-10-18T16:50:28;11.83;;;7.47;;
14125;SDS011;7141;49.484;11.242;2022-10-18T16:52:54;12.00;;;8.17;;
14125;SDS011;7141;49.484;11.242;2022-10-18T16:55:19;13.53;;;8.73;;
14125;SDS011;7141;49.484;11.242;2022-10-18T16:57:48;16.97;;;10.27;;
14125;SDS011;7141;49.484;11.242;2022-10-18T17:00:16;15.47;;;9.53;;
14125;SDS011;7141;49.484;11.242;2022-10-18T17:02:43;10.60;;;9.53;;
14125;SDS011;7141;49.484;11.242;2022-10-18T17:05:09;15.70;;;9.93;;
14125;SDS011;7141;49.484;11.242;2022-10-18T17:07:35;12.70;;;10.10;;
14125;SDS011;7141;49.484;11.242;2022-10-18T17:10:02;15.27;;;10.83;;
14125;SDS011;7141;49.484;11.242;2022-10-18T17:12:28;14.90;;;10.90;;
14125;SDS011;7141;49.484;11.242;2022-10-18T17:14:54;15.27;;;12.07;;
14125;SDS011;7141;49.484;11.242;2022-10-18T17:17:20;14.40;;;10.13;;
14125;SDS011;7141;49.484;11.242;2022-10-18T17:19:46;17.10;;;10.33;;
14125;SDS011;7141;49.484;11.242;2022-10-18T17:22:12;14.83;;;10.10;;
14125;SDS011;7141;49.484;11.242;2022-10-18T17:24:38;13.47;;;9.87;;
14125;SDS011;7141;49.484;11.242;2022-10-18T17:27:04;12.37;;;9.43;;
14125;SDS011;7141;49.484;11.242;2022-10-18T17:29:30;13.70;;;9.37;;